Historique des mesures à Cassis (13260), France
Quotidien Résumé Octobre 15, 2017 Unités:  Métrique    US   Métrique/US
« Précédent (Jour)
Suivant (Jour) »
Quotidien Hebdomadaire Mensuel Annuel Période au choix
  Maximum: Minimum: Moyenne:
Température: TemperatureC °C 14.9 °C 17.3 °C
Point de rosée: DewpointC °C 12.1 °C 13.8 °C
Humidité: Humidity % 73 % 76 %
Vitesse du vent: 0 km/h 0 km/h 3.4 km/h
Rafales: 0 km/h - -
Vent:- - ESE
Pression: PressurehPa hPa 1024.3 hPa -
Précipitations: 0.0 mm    
Historical Graphs
 
 
Mesures pour : Octobre 15, 2017
Heure Temperature Point de rosée Pression Vent Vitesse du vent Rafales Humidité Pluie (par heure) Conditions
TemperatureC °C DewpointC °C PressurehPa hPa Calm     Humidity % HourlyPrecipMM mm SoftwareType W/m2
00:11 16.4 °C 12.8 °C 1024.6 hPa Calm   2.9 km/h 79 % 0.0 mm open2300-1.11 W/m2
01:11 16.4 °C 12.8 °C 1024.9 hPa North 2.3 km/h 3.4 km/h 79 % 0.0 mm open2300-1.11 W/m2
02:11 15.9 °C 12.7 °C 1024.9 hPa NNE 5.1 km/h 5.1 km/h 81 % 0.0 mm open2300-1.11 W/m2
03:11 15.8 °C 12.6 °C 1024.9 hPa NNW 5.6 km/h 10.3 km/h 81 % 0.0 mm open2300-1.11 W/m2
04:11 15.9 °C 12.7 °C 1024.9 hPa North 4.7 km/h 12.7 km/h 81 % 0.0 mm open2300-1.11 W/m2
05:11 15.5 °C 12.4 °C 1024.6 hPa Calm   2.9 km/h 82 % 0.0 mm open2300-1.11 W/m2
06:11 15.2 °C 12.3 °C 1024.9 hPa North 4.2 km/h 4.2 km/h 83 % 0.0 mm open2300-1.11 W/m2
07:11 14.9 °C 12.1 °C 1025.3 hPa North 3.4 km/h 5.1 km/h 83 % 0.0 mm open2300-1.11 W/m2
08:11 15.1 °C 12.4 °C 1025.3 hPa NNE 4.7 km/h 5.6 km/h 84 % 0.0 mm open2300-1.11 W/m2
09:11 16.6 °C 13.7 °C 1025.6 hPa Calm     83 % 0.0 mm open2300-1.11 W/m2
10:11 18.1 °C 14.8 °C 1026.0 hPa ESE 2.3 km/h 4.2 km/h 81 % 0.0 mm open2300-1.11 W/m2
11:11 19.5 °C 15.6 °C 1026.3 hPa SSE 8 km/h 12.7 km/h 78 % 0.0 mm open2300-1.11 W/m2
12:11 21.0 °C 15.9 °C 1026.0 hPa South 8.9 km/h 8.9 km/h 73 % 0.0 mm open2300-1.11 W/m2
13:11 21.8 °C 16.9 °C 1026.0 hPa SSW 10.9 km/h 10.9 km/h 74 % 0.0 mm open2300-1.11 W/m2
14:11 21.8 °C 16.9 °C 1025.3 hPa ESE 9.3 km/h 9.3 km/h 74 % 0.0 mm open2300-1.11 W/m2
15:11 21.5 °C 16.7 °C 1024.6 hPa SSW 4.7 km/h 9.3 km/h 74 % 0.0 mm open2300-1.11 W/m2
16:11 21.4 °C 16.6 °C 1024.3 hPa Calm   8.9 km/h 74 % 0.0 mm open2300-1.11 W/m2
17:11 21.1 °C 16.4 °C 1024.3 hPa SSE 3.4 km/h 8 km/h 75 % 0.0 mm open2300-1.11 W/m2
18:11 20.5 °C 16.3 °C 1024.3 hPa SE 2.9 km/h 2.9 km/h 77 % 0.0 mm open2300-1.11 W/m2
19:11 19.4 °C 15.7 °C 1024.3 hPa Calm     79 % 0.0 mm open2300-1.11 W/m2
20:11 18.3 °C 15.0 °C 1024.6 hPa Calm     81 % 0.0 mm open2300-1.11 W/m2
21:11 17.4 °C 14.3 °C 1024.3 hPa Calm   2.3 km/h 82 % 0.0 mm open2300-1.11 W/m2
22:11 16.7 °C 14.2 °C 1024.6 hPa NW 5.1 km/h 6.4 km/h 85 % 0.0 mm open2300-1.11 W/m2
23:11 16.6 °C 14.1 °C 1024.6 hPa Calm   2.3 km/h 85 % 0.0 mm open2300-1.11 W/m2
Observations météo à CASSIS
WU-History script by Weather Underground - 1 mb